sensor_id;sensor_type;location;lat;lon;timestamp;pressure;altitude;pressure_sealevel;temperature;humidity
40838;BME280;29632;49.168;9.848;2022-08-11T00:01:53;97327.22;;;25.86;26.59
40838;BME280;29632;49.168;9.848;2022-08-11T00:04:25;97327.44;;;25.85;26.56
40838;BME280;29632;49.168;9.848;2022-08-11T00:06:51;97326.84;;;25.82;26.38
40838;BME280;29632;49.168;9.848;2022-08-11T00:09:22;97325.22;;;25.81;26.68
40838;BME280;29632;49.168;9.848;2022-08-11T00:11:56;97323.81;;;25.79;26.67
40838;BME280;29632;49.168;9.848;2022-08-11T00:14:29;97328.56;;;25.77;26.74
40838;BME280;29632;49.168;9.848;2022-08-11T00:17:02;97325.31;;;25.75;26.75
40838;BME280;29632;49.168;9.848;2022-08-11T00:19:32;97328.66;;;25.70;26.83
40838;BME280;29632;49.168;9.848;2022-08-11T00:22:00;97327.28;;;25.68;26.77
40838;BME280;29632;49.168;9.848;2022-08-11T00:24:33;97327.72;;;25.65;27.19
40838;BME280;29632;49.168;9.848;2022-08-11T00:27:00;97326.94;;;25.64;27.10
40838;BME280;29632;49.168;9.848;2022-08-11T00:29:26;97317.50;;;25.61;27.13
40838;BME280;29632;49.168;9.848;2022-08-11T00:31:55;97325.50;;;25.61;27.03
40838;BME280;29632;49.168;9.848;2022-08-11T00:34:28;97329.69;;;25.57;27.20
40838;BME280;29632;49.168;9.848;2022-08-11T00:37:05;97332.78;;;25.54;26.90
40838;BME280;29632;49.168;9.848;2022-08-11T00:39:35;97336.75;;;25.52;27.09
40838;BME280;29632;49.168;9.848;2022-08-11T00:42:40;97330.22;;;25.48;27.40
40838;BME280;29632;49.168;9.848;2022-08-11T00:48:10;97325.34;;;25.44;27.28
40838;BME280;29632;49.168;9.848;2022-08-11T00:51:12;97333.00;;;25.41;27.14
40838;BME280;29632;49.168;9.848;2022-08-11T00:53:53;97334.47;;;25.37;27.17
40838;BME280;29632;49.168;9.848;2022-08-11T01:33:32;97317.38;;;24.71;28.35
40838;BME280;29632;49.168;9.848;2022-08-11T01:45:31;97316.28;;;24.53;28.38
40838;BME280;29632;49.168;9.848;2022-08-11T01:48:40;97318.22;;;24.46;28.58
40838;BME280;29632;49.168;9.848;2022-08-11T01:54:33;97312.56;;;24.36;28.68
40838;BME280;29632;49.168;9.848;2022-08-11T01:57:19;97308.72;;;24.31;28.93
40838;BME280;29632;49.168;9.848;2022-08-11T02:00:06;97308.94;;;24.30;28.71
40838;BME280;29632;49.168;9.848;2022-08-11T02:03:00;97309.63;;;24.25;28.93
40838;BME280;29632;49.168;9.848;2022-08-11T02:09:31;97301.53;;;24.13;28.99
40838;BME280;29632;49.168;9.848;2022-08-11T02:15:34;97300.97;;;24.05;29.29
40838;BME280;29632;49.168;9.848;2022-08-11T02:18:27;97300.38;;;24.03;29.02
40838;BME280;29632;49.168;9.848;2022-08-11T02:21:30;97297.34;;;23.99;29.41
40838;BME280;29632;49.168;9.848;2022-08-11T02:25:01;97304.31;;;23.93;29.41
40838;BME280;29632;49.168;9.848;2022-08-11T02:27:47;97297.00;;;23.89;29.42
40838;BME280;29632;49.168;9.848;2022-08-11T02:30:16;97297.22;;;23.87;29.49
40838;BME280;29632;49.168;9.848;2022-08-11T02:33:07;97293.34;;;23.83;29.60
40838;BME280;29632;49.168;9.848;2022-08-11T02:36:11;97286.00;;;23.79;29.54
40838;BME280;29632;49.168;9.848;2022-08-11T02:39:10;97293.81;;;23.73;29.59
40838;BME280;29632;49.168;9.848;2022-08-11T02:41:49;97288.72;;;23.72;29.79
40838;BME280;29632;49.168;9.848;2022-08-11T02:56:57;97291.50;;;23.52;30.08
40838;BME280;29632;49.168;9.848;2022-08-11T03:00:09;97285.78;;;23.48;30.02
40838;BME280;29632;49.168;9.848;2022-08-11T03:05:51;97293.38;;;23.45;30.26
40838;BME280;29632;49.168;9.848;2022-08-11T03:14:43;97296.31;;;23.36;30.23
40838;BME280;29632;49.168;9.848;2022-08-11T03:17:45;97295.69;;;23.34;30.15
40838;BME280;29632;49.168;9.848;2022-08-11T03:25:57;97296.13;;;23.31;30.40
40838;BME280;29632;49.168;9.848;2022-08-11T03:31:55;97300.00;;;23.29;30.43
40838;BME280;29632;49.168;9.848;2022-08-11T03:34:25;97304.09;;;23.31;30.64
40838;BME280;29632;49.168;9.848;2022-08-11T03:37:17;97304.50;;;23.28;30.40
40838;BME280;29632;49.168;9.848;2022-08-11T03:40:11;97299.41;;;23.27;30.45
40838;BME280;29632;49.168;9.848;2022-08-11T03:45:47;97304.34;;;23.23;30.59
40838;BME280;29632;49.168;9.848;2022-08-11T03:48:51;97306.41;;;23.21;30.75
40838;BME280;29632;49.168;9.848;2022-08-11T03:51:49;97298.84;;;23.18;30.71
40838;BME280;29632;49.168;9.848;2022-08-11T04:06:47;97289.69;;;23.07;31.19
40838;BME280;29632;49.168;9.848;2022-08-11T04:16:00;97303.97;;;22.99;31.20
40838;BME280;29632;49.168;9.848;2022-08-11T04:25:05;97306.03;;;22.97;31.43
40838;BME280;29632;49.168;9.848;2022-08-11T04:33:43;97296.84;;;23.00;31.49
40838;BME280;29632;49.168;9.848;2022-08-11T05:17:07;97315.09;;;23.42;31.73
40838;BME280;29632;49.168;9.848;2022-08-11T05:19:54;97300.94;;;23.48;31.81
40838;BME280;29632;49.168;9.848;2022-08-11T05:22:46;97313.59;;;23.52;32.03
40838;BME280;29632;49.168;9.848;2022-08-11T05:25:34;97310.91;;;23.59;31.70
40838;BME280;29632;49.168;9.848;2022-08-11T05:28:34;97320.28;;;23.62;31.96
40838;BME280;29632;49.168;9.848;2022-08-11T05:31:32;97310.03;;;23.65;31.96
40838;BME280;29632;49.168;9.848;2022-08-11T05:34:30;97312.44;;;23.73;32.05
40838;BME280;29632;49.168;9.848;2022-08-11T05:43:01;97317.63;;;23.93;31.68
40838;BME280;29632;49.168;9.848;2022-08-11T05:46:00;97323.13;;;23.99;31.37
40838;BME280;29632;49.168;9.848;2022-08-11T05:48:46;97321.44;;;24.04;31.33
40838;BME280;29632;49.168;9.848;2022-08-11T05:51:42;97334.91;;;24.09;31.57
40838;BME280;29632;49.168;9.848;2022-08-11T05:54:28;97319.94;;;24.15;31.52
40838;BME280;29632;49.168;9.848;2022-08-11T05:57:42;97327.25;;;24.20;31.86
40838;BME280;29632;49.168;9.848;2022-08-11T06:00:09;97324.09;;;24.29;31.20
40838;BME280;29632;49.168;9.848;2022-08-11T06:02:42;97326.94;;;24.35;31.60
40838;BME280;29632;49.168;9.848;2022-08-11T06:05:09;97325.00;;;24.42;31.22
40838;BME280;29632;49.168;9.848;2022-08-11T06:07:36;97325.75;;;24.49;31.33
40838;BME280;29632;49.168;9.848;2022-08-11T06:10:03;97319.13;;;24.58;31.38
40838;BME280;29632;49.168;9.848;2022-08-11T06:12:31;97327.88;;;24.65;31.26
40838;BME280;29632;49.168;9.848;2022-08-11T06:15:05;97315.31;;;24.73;31.46
40838;BME280;29632;49.168;9.848;2022-08-11T06:17:35;97315.44;;;24.78;31.27
40838;BME280;29632;49.168;9.848;2022-08-11T06:20:09;97314.56;;;24.84;30.91
40838;BME280;29632;49.168;9.848;2022-08-11T06:22:38;97321.44;;;24.92;31.32
40838;BME280;29632;49.168;9.848;2022-08-11T06:25:08;97331.22;;;24.98;31.00
40838;BME280;29632;49.168;9.848;2022-08-11T06:27:36;97328.28;;;25.06;31.16
40838;BME280;29632;49.168;9.848;2022-08-11T06:30:05;97336.78;;;25.15;31.24
40838;BME280;29632;49.168;9.848;2022-08-11T06:32:50;97341.19;;;25.21;31.07
40838;BME280;29632;49.168;9.848;2022-08-11T06:39:31;97342.69;;;25.35;30.92
40838;BME280;29632;49.168;9.848;2022-08-11T06:42:51;97334.59;;;25.42;30.96
40838;BME280;29632;49.168;9.848;2022-08-11T06:45:06;97337.75;;;25.51;30.87
40838;BME280;29632;49.168;9.848;2022-08-11T06:47:34;97338.25;;;25.59;30.87
40838;BME280;29632;49.168;9.848;2022-08-11T06:50:00;97342.47;;;25.67;30.63
40838;BME280;29632;49.168;9.848;2022-08-11T06:52:46;97340.31;;;25.76;30.85
40838;BME280;29632;49.168;9.848;2022-08-11T06:55:23;97340.19;;;25.82;30.81
40838;BME280;29632;49.168;9.848;2022-08-11T06:58:17;97348.44;;;25.93;30.70
40838;BME280;29632;49.168;9.848;2022-08-11T07:01:10;97332.38;;;25.99;30.40
40838;BME280;29632;49.168;9.848;2022-08-11T07:03:42;97341.66;;;26.09;30.32
40838;BME280;29632;49.168;9.848;2022-08-11T07:06:32;97333.56;;;26.15;30.34
40838;BME280;29632;49.168;9.848;2022-08-11T07:09:23;97327.88;;;26.24;30.49
40838;BME280;29632;49.168;9.848;2022-08-11T07:12:39;97335.56;;;26.32;30.20
40838;BME280;29632;49.168;9.848;2022-08-11T07:15:31;97326.38;;;26.40;30.08
40838;BME280;29632;49.168;9.848;2022-08-11T07:18:10;97329.28;;;26.50;29.87
40838;BME280;29632;49.168;9.848;2022-08-11T07:21:28;97325.66;;;26.56;30.08
40838;BME280;29632;49.168;9.848;2022-08-11T07:24:17;97332.56;;;26.64;29.85
40838;BME280;29632;49.168;9.848;2022-08-11T07:27:08;97323.38;;;26.71;29.68
40838;BME280;29632;49.168;9.848;2022-08-11T07:29:55;97321.16;;;26.80;29.80
40838;BME280;29632;49.168;9.848;2022-08-11T07:32:32;97322.44;;;26.89;29.54
40838;BME280;29632;49.168;9.848;2022-08-11T07:35:17;97317.28;;;27.00;29.64
40838;BME280;29632;49.168;9.848;2022-08-11T07:37:49;97317.25;;;27.11;29.55
40838;BME280;29632;49.168;9.848;2022-08-11T07:40:24;97316.66;;;27.21;29.60
40838;BME280;29632;49.168;9.848;2022-08-11T07:42:52;97319.56;;;27.31;29.29
40838;BME280;29632;49.168;9.848;2022-08-11T07:45:19;97318.34;;;27.39;29.09
40838;BME280;29632;49.168;9.848;2022-08-11T07:48:04;97317.50;;;27.50;29.07
40838;BME280;29632;49.168;9.848;2022-08-11T07:50:50;97313.16;;;27.61;29.10
40838;BME280;29632;49.168;9.848;2022-08-11T07:53:36;97314.59;;;27.69;29.02
40838;BME280;29632;49.168;9.848;2022-08-11T07:56:03;97319.34;;;27.79;28.93
40838;BME280;29632;49.168;9.848;2022-08-11T07:58:30;97314.97;;;27.90;28.53
40838;BME280;29632;49.168;9.848;2022-08-11T08:01:22;97311.09;;;27.97;28.48
40838;BME280;29632;49.168;9.848;2022-08-11T08:04:11;97315.56;;;28.09;28.40
40838;BME280;29632;49.168;9.848;2022-08-11T08:06:56;97308.25;;;28.21;28.47
40838;BME280;29632;49.168;9.848;2022-08-11T08:09:42;97314.25;;;28.28;28.11
40838;BME280;29632;49.168;9.848;2022-08-11T08:12:28;97317.34;;;28.37;28.15
40838;BME280;29632;49.168;9.848;2022-08-11T08:15:14;97305.63;;;28.43;27.71
40838;BME280;29632;49.168;9.848;2022-08-11T08:18:02;97303.94;;;28.54;27.62
40838;BME280;29632;49.168;9.848;2022-08-11T08:23:02;97300.41;;;28.70;27.44
40838;BME280;29632;49.168;9.848;2022-08-11T08:25:32;97302.69;;;28.78;27.21
40838;BME280;29632;49.168;9.848;2022-08-11T08:28:06;97308.91;;;28.84;26.83
40838;BME280;29632;49.168;9.848;2022-08-11T08:30:34;97309.03;;;28.94;27.03
40838;BME280;29632;49.168;9.848;2022-08-11T08:36:00;97299.56;;;29.09;26.52
40838;BME280;29632;49.168;9.848;2022-08-11T08:41:27;97302.69;;;29.23;26.07
40838;BME280;29632;49.168;9.848;2022-08-11T08:43:57;97299.81;;;29.29;25.72
40838;BME280;29632;49.168;9.848;2022-08-11T08:46:55;97299.88;;;29.34;25.94
40838;BME280;29632;49.168;9.848;2022-08-11T08:49:29;97302.91;;;29.43;25.60
40838;BME280;29632;49.168;9.848;2022-08-11T08:52:01;97296.03;;;29.52;25.67
40838;BME280;29632;49.168;9.848;2022-08-11T08:54:34;97290.75;;;29.63;25.35
40838;BME280;29632;49.168;9.848;2022-08-11T08:57:03;97298.34;;;29.71;24.94
40838;BME280;29632;49.168;9.848;2022-08-11T08:59:35;97299.22;;;29.77;25.09
40838;BME280;29632;49.168;9.848;2022-08-11T09:02:05;97289.63;;;29.86;25.00
40838;BME280;29632;49.168;9.848;2022-08-11T09:04:32;97300.97;;;29.93;24.85
40838;BME280;29632;49.168;9.848;2022-08-11T09:07:08;97292.16;;;29.98;24.89
40838;BME280;29632;49.168;9.848;2022-08-11T09:09:34;97303.25;;;30.06;24.82
40838;BME280;29632;49.168;9.848;2022-08-11T09:12:01;97301.94;;;30.14;24.67
40838;BME280;29632;49.168;9.848;2022-08-11T09:14:34;97294.72;;;30.15;24.91
40838;BME280;29632;49.168;9.848;2022-08-11T09:17:21;97299.06;;;30.26;24.39
40838;BME280;29632;49.168;9.848;2022-08-11T09:19:51;97293.53;;;30.38;24.41
40838;BME280;29632;49.168;9.848;2022-08-11T09:22:24;97306.22;;;30.47;24.17
40838;BME280;29632;49.168;9.848;2022-08-11T09:25:09;97292.31;;;30.56;23.74
40838;BME280;29632;49.168;9.848;2022-08-11T09:27:54;97296.41;;;30.63;23.65
40838;BME280;29632;49.168;9.848;2022-08-11T09:30:23;97295.34;;;30.75;23.67
40838;BME280;29632;49.168;9.848;2022-08-11T09:32:55;97293.25;;;30.82;23.36
40838;BME280;29632;49.168;9.848;2022-08-11T09:35:29;97293.53;;;30.85;23.12
40838;BME280;29632;49.168;9.848;2022-08-11T09:37:57;97298.63;;;30.87;22.74
40838;BME280;29632;49.168;9.848;2022-08-11T09:40:45;97292.50;;;30.92;22.97
40838;BME280;29632;49.168;9.848;2022-08-11T09:43:14;97290.66;;;30.97;22.77
40838;BME280;29632;49.168;9.848;2022-08-11T09:46:00;97278.84;;;31.03;23.01
40838;BME280;29632;49.168;9.848;2022-08-11T09:48:30;97287.47;;;31.11;22.33
40838;BME280;29632;49.168;9.848;2022-08-11T09:51:00;97290.44;;;31.14;22.11
40838;BME280;29632;49.168;9.848;2022-08-11T09:53:31;97289.09;;;31.17;22.06
40838;BME280;29632;49.168;9.848;2022-08-11T09:55:58;97288.31;;;31.21;22.11
40838;BME280;29632;49.168;9.848;2022-08-11T09:58:45;97283.50;;;31.29;22.26
40838;BME280;29632;49.168;9.848;2022-08-11T10:01:11;97285.09;;;31.35;22.05
40838;BME280;29632;49.168;9.848;2022-08-11T10:03:55;97291.31;;;31.40;21.97
40838;BME280;29632;49.168;9.848;2022-08-11T10:06:27;97279.47;;;31.47;21.70
40838;BME280;29632;49.168;9.848;2022-08-11T10:09:17;97287.56;;;31.47;21.77
40838;BME280;29632;49.168;9.848;2022-08-11T10:11:46;97281.16;;;31.53;21.76
40838;BME280;29632;49.168;9.848;2022-08-11T10:14:14;97289.75;;;31.60;21.74
40838;BME280;29632;49.168;9.848;2022-08-11T10:17:03;97273.09;;;31.63;21.34
40838;BME280;29632;49.168;9.848;2022-08-11T10:19:33;97268.50;;;31.69;21.41
40838;BME280;29632;49.168;9.848;2022-08-11T10:22:01;97270.38;;;31.73;21.45
40838;BME280;29632;49.168;9.848;2022-08-11T10:24:47;97259.06;;;31.81;21.70
40838;BME280;29632;49.168;9.848;2022-08-11T10:27:32;97262.84;;;31.91;21.28
40838;BME280;29632;49.168;9.848;2022-08-11T10:29:59;97256.66;;;31.95;21.08
40838;BME280;29632;49.168;9.848;2022-08-11T10:32:44;97264.19;;;32.04;20.86
40838;BME280;29632;49.168;9.848;2022-08-11T10:35:30;97256.66;;;32.11;20.90
40838;BME280;29632;49.168;9.848;2022-08-11T10:37:58;97257.47;;;32.16;20.53
40838;BME280;29632;49.168;9.848;2022-08-11T10:40:25;97247.47;;;32.22;20.81
40838;BME280;29632;49.168;9.848;2022-08-11T10:42:56;97248.03;;;32.29;20.74
40838;BME280;29632;49.168;9.848;2022-08-11T10:45:37;97238.56;;;32.37;20.42
40838;BME280;29632;49.168;9.848;2022-08-11T10:48:24;97233.41;;;32.46;20.22
40838;BME280;29632;49.168;9.848;2022-08-11T10:50:52;97243.38;;;32.55;20.23
40838;BME280;29632;49.168;9.848;2022-08-11T10:53:44;97238.53;;;32.63;20.28
40838;BME280;29632;49.168;9.848;2022-08-11T10:56:34;97240.09;;;32.69;20.06
40838;BME280;29632;49.168;9.848;2022-08-11T10:59:19;97235.22;;;32.76;19.93
40838;BME280;29632;49.168;9.848;2022-08-11T11:01:47;97228.47;;;32.79;20.08
40838;BME280;29632;49.168;9.848;2022-08-11T11:04:23;97232.50;;;32.81;19.63
40838;BME280;29632;49.168;9.848;2022-08-11T11:07:09;97227.63;;;32.83;19.65
40838;BME280;29632;49.168;9.848;2022-08-11T11:09:53;97222.19;;;32.93;19.82
40838;BME280;29632;49.168;9.848;2022-08-11T11:12:52;97215.16;;;33.03;19.59
40838;BME280;29632;49.168;9.848;2022-08-11T11:15:43;97222.13;;;33.14;19.71
40838;BME280;29632;49.168;9.848;2022-08-11T11:18:35;97227.19;;;33.21;19.55
40838;BME280;29632;49.168;9.848;2022-08-11T11:21:10;97225.50;;;33.30;19.27
40838;BME280;29632;49.168;9.848;2022-08-11T11:24:02;97218.72;;;33.38;19.26
40838;BME280;29632;49.168;9.848;2022-08-11T11:26:56;97226.22;;;33.46;19.24
40838;BME280;29632;49.168;9.848;2022-08-11T11:29:50;97228.91;;;33.46;19.16
40838;BME280;29632;49.168;9.848;2022-08-11T11:37:47;97208.38;;;33.50;18.99
40838;BME280;29632;49.168;9.848;2022-08-11T11:40:18;97205.06;;;33.58;18.90
40838;BME280;29632;49.168;9.848;2022-08-11T11:42:53;97206.91;;;33.68;18.86
40838;BME280;29632;49.168;9.848;2022-08-11T11:45:22;97201.69;;;33.77;18.85
40838;BME280;29632;49.168;9.848;2022-08-11T11:47:53;97197.06;;;33.82;18.86
40838;BME280;29632;49.168;9.848;2022-08-11T11:50:37;97203.19;;;33.88;18.45
40838;BME280;29632;49.168;9.848;2022-08-11T11:53:07;97198.81;;;33.97;18.49
40838;BME280;29632;49.168;9.848;2022-08-11T11:55:34;97191.13;;;34.10;18.62
40838;BME280;29632;49.168;9.848;2022-08-11T11:58:02;97200.53;;;34.12;18.39
40838;BME280;29632;49.168;9.848;2022-08-11T12:00:48;97192.72;;;34.11;18.11
40838;BME280;29632;49.168;9.848;2022-08-11T12:03:34;97195.66;;;34.14;18.00
40838;BME280;29632;49.168;9.848;2022-08-11T12:06:02;97188.03;;;34.21;18.31
40838;BME280;29632;49.168;9.848;2022-08-11T12:08:29;97197.41;;;34.29;18.06
40838;BME280;29632;49.168;9.848;2022-08-11T12:11:02;97195.22;;;34.31;17.94
40838;BME280;29632;49.168;9.848;2022-08-11T12:13:51;97191.97;;;34.34;17.67
40838;BME280;29632;49.168;9.848;2022-08-11T12:16:19;97179.97;;;34.40;17.90
40838;BME280;29632;49.168;9.848;2022-08-11T12:18:50;97179.63;;;34.47;17.63
40838;BME280;29632;49.168;9.848;2022-08-11T12:21:16;97178.28;;;34.50;17.49
40838;BME280;29632;49.168;9.848;2022-08-11T12:23:44;97183.38;;;34.51;17.58
40838;BME280;29632;49.168;9.848;2022-08-11T12:26:30;97176.06;;;34.52;17.35
40838;BME280;29632;49.168;9.848;2022-08-11T12:29:23;97175.78;;;34.53;17.50
40838;BME280;29632;49.168;9.848;2022-08-11T12:31:54;97164.91;;;34.58;17.59
40838;BME280;29632;49.168;9.848;2022-08-11T12:34:22;97162.78;;;34.55;17.83
40838;BME280;29632;49.168;9.848;2022-08-11T12:36:59;97154.88;;;34.59;17.58
40838;BME280;29632;49.168;9.848;2022-08-11T12:39:36;97155.41;;;34.61;17.06
40838;BME280;29632;49.168;9.848;2022-08-11T12:42:20;97168.13;;;34.60;17.21
40838;BME280;29632;49.168;9.848;2022-08-11T12:45:11;97160.81;;;34.61;17.24
40838;BME280;29632;49.168;9.848;2022-08-11T12:48:03;97162.72;;;34.60;17.45
40838;BME280;29632;49.168;9.848;2022-08-11T12:51:10;97148.91;;;34.62;17.44
40838;BME280;29632;49.168;9.848;2022-08-11T12:56:48;97141.69;;;34.76;17.50
40838;BME280;29632;49.168;9.848;2022-08-11T12:59:34;97135.94;;;34.83;17.08
40838;BME280;29632;49.168;9.848;2022-08-11T13:02:21;97132.94;;;34.85;16.88
40838;BME280;29632;49.168;9.848;2022-08-11T13:05:12;97132.94;;;34.85;17.15
40838;BME280;29632;49.168;9.848;2022-08-11T13:07:42;97133.22;;;34.83;16.82
40838;BME280;29632;49.168;9.848;2022-08-11T13:10:10;97127.47;;;34.90;16.87
40838;BME280;29632;49.168;9.848;2022-08-11T13:12:38;97124.16;;;34.93;16.89
40838;BME280;29632;49.168;9.848;2022-08-11T13:15:18;97121.44;;;34.93;16.74
40838;BME280;29632;49.168;9.848;2022-08-11T13:17:46;97132.25;;;34.93;16.91
40838;BME280;29632;49.168;9.848;2022-08-11T13:20:17;97126.63;;;34.89;17.26
40838;BME280;29632;49.168;9.848;2022-08-11T13:22:51;97133.88;;;34.94;16.64
40838;BME280;29632;49.168;9.848;2022-08-11T13:25:20;97126.28;;;34.96;16.34
40838;BME280;29632;49.168;9.848;2022-08-11T13:27:48;97123.06;;;34.94;17.06
40838;BME280;29632;49.168;9.848;2022-08-11T13:30:16;97116.31;;;34.91;16.74
40838;BME280;29632;49.168;9.848;2022-08-11T13:33:02;97111.72;;;34.92;16.75
40838;BME280;29632;49.168;9.848;2022-08-11T13:35:30;97106.31;;;34.92;16.38
40838;BME280;29632;49.168;9.848;2022-08-11T13:37:58;97111.72;;;34.92;16.34
40838;BME280;29632;49.168;9.848;2022-08-11T13:40:26;97103.84;;;34.95;16.63
40838;BME280;29632;49.168;9.848;2022-08-11T13:42:52;97100.22;;;35.00;16.73
40838;BME280;29632;49.168;9.848;2022-08-11T13:45:21;97096.34;;;35.06;16.94
40838;BME280;29632;49.168;9.848;2022-08-11T13:47:50;97096.28;;;35.11;17.04
40838;BME280;29632;49.168;9.848;2022-08-11T13:50:17;97098.91;;;35.16;16.75
40838;BME280;29632;49.168;9.848;2022-08-11T13:52:44;97089.31;;;35.24;16.56
40838;BME280;29632;49.168;9.848;2022-08-11T13:55:11;97092.72;;;35.30;17.03
40838;BME280;29632;49.168;9.848;2022-08-11T13:57:50;97083.22;;;35.32;16.79
40838;BME280;29632;49.168;9.848;2022-08-11T14:00:17;97090.25;;;35.33;17.11
40838;BME280;29632;49.168;9.848;2022-08-11T14:02:44;97094.78;;;35.38;16.45
40838;BME280;29632;49.168;9.848;2022-08-11T14:05:18;97085.25;;;35.41;16.20
40838;BME280;29632;49.168;9.848;2022-08-11T14:07:58;97074.63;;;35.44;16.66
40838;BME280;29632;49.168;9.848;2022-08-11T14:10:28;97075.63;;;35.48;16.12
40838;BME280;29632;49.168;9.848;2022-08-11T14:13:02;97083.97;;;35.52;16.51
40838;BME280;29632;49.168;9.848;2022-08-11T14:15:47;97080.97;;;35.53;16.59
40838;BME280;29632;49.168;9.848;2022-08-11T14:18:25;97069.34;;;35.53;16.29
40838;BME280;29632;49.168;9.848;2022-08-11T14:20:56;97070.72;;;35.50;16.69
40838;BME280;29632;49.168;9.848;2022-08-11T14:23:47;97072.34;;;35.51;16.09
40838;BME280;29632;49.168;9.848;2022-08-11T14:26:17;97069.13;;;35.49;16.47
40838;BME280;29632;49.168;9.848;2022-08-11T14:29:01;97066.44;;;35.49;16.48
40838;BME280;29632;49.168;9.848;2022-08-11T14:31:31;97067.72;;;35.52;16.40
40838;BME280;29632;49.168;9.848;2022-08-11T14:34:05;97065.50;;;35.54;16.32
40838;BME280;29632;49.168;9.848;2022-08-11T14:36:35;97054.09;;;35.57;16.79
40838;BME280;29632;49.168;9.848;2022-08-11T14:39:09;97059.72;;;35.61;16.16
40838;BME280;29632;49.168;9.848;2022-08-11T14:41:42;97049.06;;;35.64;16.15
40838;BME280;29632;49.168;9.848;2022-08-11T14:44:28;97050.91;;;35.69;16.53
40838;BME280;29632;49.168;9.848;2022-08-11T14:47:14;97055.75;;;35.72;16.63
40838;BME280;29632;49.168;9.848;2022-08-11T14:49:42;97052.72;;;35.73;16.12
40838;BME280;29632;49.168;9.848;2022-08-11T14:52:14;97046.41;;;35.78;16.37
40838;BME280;29632;49.168;9.848;2022-08-11T14:54:46;97050.72;;;35.79;16.00
40838;BME280;29632;49.168;9.848;2022-08-11T14:57:36;97044.19;;;35.80;16.03
40838;BME280;29632;49.168;9.848;2022-08-11T15:00:06;97041.47;;;35.80;15.78
40838;BME280;29632;49.168;9.848;2022-08-11T15:02:36;97042.69;;;35.74;16.32
40838;BME280;29632;49.168;9.848;2022-08-11T15:05:23;97043.28;;;35.71;16.03
40838;BME280;29632;49.168;9.848;2022-08-11T15:07:51;97043.28;;;35.71;15.89
40838;BME280;29632;49.168;9.848;2022-08-11T15:10:18;97048.41;;;35.72;15.81
40838;BME280;29632;49.168;9.848;2022-08-11T15:12:46;97037.66;;;35.67;16.20
40838;BME280;29632;49.168;9.848;2022-08-11T15:15:13;97039.38;;;35.63;16.08
40838;BME280;29632;49.168;9.848;2022-08-11T15:18:02;97035.13;;;35.57;15.83
40838;BME280;29632;49.168;9.848;2022-08-11T15:20:29;97036.75;;;35.58;16.28
40838;BME280;29632;49.168;9.848;2022-08-11T15:23:14;97038.34;;;35.59;16.45
40838;BME280;29632;49.168;9.848;2022-08-11T15:26:23;97025.72;;;35.54;16.18
40838;BME280;29632;49.168;9.848;2022-08-11T15:29:11;97026.50;;;35.55;16.12
40838;BME280;29632;49.168;9.848;2022-08-11T15:31:58;97030.31;;;35.54;15.60
40838;BME280;29632;49.168;9.848;2022-08-11T15:34:46;97017.91;;;35.53;15.63
40838;BME280;29632;49.168;9.848;2022-08-11T15:37:32;97014.06;;;35.54;15.84
40838;BME280;29632;49.168;9.848;2022-08-11T15:40:02;97015.69;;;35.55;16.30
40838;BME280;29632;49.168;9.848;2022-08-11T15:49:17;97018.56;;;35.45;16.15
40838;BME280;29632;49.168;9.848;2022-08-11T15:51:57;97015.66;;;35.41;15.69
40838;BME280;29632;49.168;9.848;2022-08-11T15:54:28;97012.16;;;35.41;16.24
40838;BME280;29632;49.168;9.848;2022-08-11T15:56:57;97011.63;;;35.39;15.74
40838;BME280;29632;49.168;9.848;2022-08-11T15:59:28;97018.38;;;35.41;16.13
40838;BME280;29632;49.168;9.848;2022-08-11T16:02:18;97016.25;;;35.38;16.21
40838;BME280;29632;49.168;9.848;2022-08-11T16:05:11;97011.16;;;35.36;15.70
40838;BME280;29632;49.168;9.848;2022-08-11T16:07:38;97005.72;;;35.36;16.12
40838;BME280;29632;49.168;9.848;2022-08-11T16:10:09;97011.44;;;35.35;16.13
40838;BME280;29632;49.168;9.848;2022-08-11T16:13:02;97009.66;;;35.30;15.89
40838;BME280;29632;49.168;9.848;2022-08-11T16:15:33;97000.22;;;35.28;16.12
40838;BME280;29632;49.168;9.848;2022-08-11T16:18:21;97002.72;;;35.24;15.80
40838;BME280;29632;49.168;9.848;2022-08-11T16:20:50;96997.28;;;35.24;15.81
40838;BME280;29632;49.168;9.848;2022-08-11T16:23:20;96992.19;;;35.23;15.84
40838;BME280;29632;49.168;9.848;2022-08-11T16:25:47;96987.88;;;35.22;15.88
40838;BME280;29632;49.168;9.848;2022-08-11T16:28:15;96986.25;;;35.21;15.75
40838;BME280;29632;49.168;9.848;2022-08-11T16:30:42;96981.94;;;35.20;16.06
40838;BME280;29632;49.168;9.848;2022-08-11T16:33:11;96991.44;;;35.17;15.81
40838;BME280;29632;49.168;9.848;2022-08-11T16:35:39;96985.81;;;35.13;16.10
40838;BME280;29632;49.168;9.848;2022-08-11T16:38:25;96986.41;;;35.10;15.88
40838;BME280;29632;49.168;9.848;2022-08-11T16:41:04;96976.22;;;35.07;16.02
40838;BME280;29632;49.168;9.848;2022-08-11T16:43:44;96983.00;;;35.05;15.65
40838;BME280;29632;49.168;9.848;2022-08-11T16:46:29;96977.88;;;35.03;15.98
40838;BME280;29632;49.168;9.848;2022-08-11T16:49:22;96983.09;;;34.99;15.74
40838;BME280;29632;49.168;9.848;2022-08-11T16:51:51;96986.59;;;35.00;15.97
40838;BME280;29632;49.168;9.848;2022-08-11T16:54:18;96977.69;;;34.99;16.18
40838;BME280;29632;49.168;9.848;2022-08-11T16:56:53;96978.59;;;34.95;16.02
40838;BME280;29632;49.168;9.848;2022-08-11T16:59:37;96978.69;;;34.90;15.80
40838;BME280;29632;49.168;9.848;2022-08-11T17:02:16;96977.34;;;34.87;15.56
40838;BME280;29632;49.168;9.848;2022-08-11T17:05:12;96977.72;;;34.80;15.81
40838;BME280;29632;49.168;9.848;2022-08-11T17:08:01;96978.09;;;34.74;15.94
40838;BME280;29632;49.168;9.848;2022-08-11T17:10:59;96975.25;;;34.65;15.86
40838;BME280;29632;49.168;9.848;2022-08-11T17:13:57;96976.94;;;34.61;15.79
40838;BME280;29632;49.168;9.848;2022-08-11T17:16:32;96970.22;;;34.58;16.10
40838;BME280;29632;49.168;9.848;2022-08-11T17:19:12;96967.31;;;34.55;15.83
40838;BME280;29632;49.168;9.848;2022-08-11T17:21:47;96974.41;;;34.51;16.36